createdAt,value
2022-10-30T00:01:24.970Z,13.78
2022-10-30T00:03:51.835Z,13.79
2022-10-30T00:06:20.309Z,13.80
2022-10-30T00:11:31.958Z,13.78
2022-10-30T00:13:58.644Z,13.78
2022-10-30T00:16:26.139Z,13.80
2022-10-30T00:18:52.752Z,13.78
2022-10-30T00:24:07.093Z,13.79
2022-10-30T00:26:34.021Z,13.78
2022-10-30T00:29:00.563Z,13.79
2022-10-30T00:31:27.345Z,13.77
2022-10-30T00:36:39.603Z,13.74
2022-10-30T00:39:06.308Z,13.78
2022-10-30T00:41:33.162Z,13.76
2022-10-30T00:46:44.821Z,13.78
2022-10-30T00:49:19.279Z,13.77
2022-10-30T00:51:50.005Z,13.75
2022-10-30T00:57:10.741Z,13.75
2022-10-30T00:59:37.836Z,13.77
2022-10-30T01:02:06.872Z,13.78
2022-10-30T01:04:37.116Z,13.76
2022-10-30T01:07:12.581Z,13.79
2022-10-30T01:09:40.307Z,13.78
2022-10-30T01:12:07.329Z,13.79
2022-10-30T01:14:39.268Z,13.83
2022-10-30T01:17:27.695Z,13.84
2022-10-30T01:28:55.560Z,13.76
2022-10-30T01:31:58.623Z,13.83
2022-10-30T01:37:20.243Z,13.86
2022-10-30T01:39:47.080Z,13.87
2022-10-30T01:42:47.957Z,13.88
2022-10-30T01:45:42.220Z,13.83
2022-10-30T01:48:14.535Z,13.82
2022-10-30T01:50:49.019Z,13.79
2022-10-30T01:53:27.116Z,13.79
2022-10-30T01:59:07.537Z,13.74
2022-10-30T02:01:36.492Z,13.72
2022-10-30T02:09:22.255Z,13.69
2022-10-30T02:11:50.736Z,13.75
2022-10-30T02:14:31.308Z,13.79
2022-10-30T02:17:02.399Z,13.76
2022-10-30T02:19:29.040Z,13.79
2022-10-30T02:21:55.970Z,13.82
2022-10-30T02:24:22.536Z,13.84
2022-10-30T02:29:34.091Z,13.85
2022-10-30T02:32:01.134Z,13.85
2022-10-30T02:34:27.849Z,13.86
2022-10-30T02:36:54.564Z,13.84
2022-10-30T02:39:21.354Z,13.82
2022-10-30T02:41:48.546Z,13.81
2022-10-30T02:44:15.323Z,13.80
2022-10-30T02:46:42.328Z,13.80
2022-10-30T02:49:09.290Z,13.79
2022-10-30T02:51:36.379Z,13.77
2022-10-30T02:54:03.352Z,13.74
2022-10-30T02:56:29.971Z,13.72
2022-10-30T03:01:41.800Z,13.69
2022-10-30T03:04:09.075Z,13.70
2022-10-30T03:09:20.835Z,13.64
2022-10-30T03:11:47.499Z,13.64
2022-10-30T03:14:14.351Z,13.66
2022-10-30T03:16:41.070Z,13.66
2022-10-30T03:21:54.523Z,13.58
2022-10-30T03:24:21.130Z,13.58
2022-10-30T03:29:32.835Z,13.51
2022-10-30T03:31:59.491Z,13.48
2022-10-30T03:34:26.994Z,13.47
2022-10-30T03:36:53.780Z,13.48
2022-10-30T03:39:20.559Z,13.49
2022-10-30T03:41:47.173Z,13.49
2022-10-30T03:44:13.876Z,13.49
2022-10-30T03:46:40.484Z,13.50
2022-10-30T03:49:07.252Z,13.52
2022-10-30T03:51:33.911Z,13.50
2022-10-30T03:54:00.418Z,13.50
2022-10-30T03:56:26.979Z,13.53
2022-10-30T03:58:53.831Z,13.53
2022-10-30T04:01:20.553Z,13.51
2022-10-30T04:03:47.376Z,13.50
2022-10-30T04:06:14.089Z,13.48
2022-10-30T04:11:26.036Z,13.42
2022-10-30T04:13:52.916Z,13.41
2022-10-30T04:16:19.587Z,13.40
2022-10-30T04:21:30.870Z,13.39
2022-10-30T04:23:57.973Z,13.41
2022-10-30T04:26:24.463Z,13.42
2022-10-30T04:28:51.243Z,13.47
2022-10-30T04:31:17.942Z,13.46
2022-10-30T04:33:44.696Z,13.44
2022-10-30T04:38:56.250Z,13.42
2022-10-30T04:41:23.007Z,13.46
2022-10-30T04:43:50.024Z,13.48
2022-10-30T04:49:01.366Z,13.50
2022-10-30T04:51:28.172Z,13.52
2022-10-30T04:53:54.893Z,13.52
2022-10-30T04:56:21.696Z,13.53
2022-10-30T04:58:48.538Z,13.56
2022-10-30T05:01:15.340Z,13.58
2022-10-30T05:06:30.137Z,13.58
2022-10-30T05:08:57.372Z,13.60
2022-10-30T05:11:24.324Z,13.61
2022-10-30T05:13:51.002Z,13.62
2022-10-30T05:16:17.675Z,13.61
2022-10-30T05:18:44.292Z,13.62
2022-10-30T05:21:11.932Z,13.63
2022-10-30T05:23:38.682Z,13.63
2022-10-30T05:28:50.330Z,13.58
2022-10-30T05:31:17.103Z,13.60
2022-10-30T05:33:45.062Z,13.60
2022-10-30T05:36:14.077Z,13.60
2022-10-30T05:38:40.902Z,13.63
2022-10-30T05:41:07.656Z,13.62
2022-10-30T05:43:46.760Z,13.62
2022-10-30T05:46:13.320Z,13.62
2022-10-30T05:51:25.697Z,13.65
2022-10-30T05:53:52.672Z,13.65
2022-10-30T05:56:19.325Z,13.69
2022-10-30T06:01:36.240Z,13.75
2022-10-30T06:04:03.361Z,13.76
2022-10-30T06:06:30.000Z,13.79
2022-10-30T06:11:42.372Z,13.82
2022-10-30T06:14:09.396Z,13.90
2022-10-30T06:19:20.880Z,13.95
2022-10-30T06:21:47.955Z,13.98
2022-10-30T06:24:14.772Z,14.02
2022-10-30T06:26:41.912Z,14.09
2022-10-30T06:29:08.815Z,14.15
2022-10-30T06:31:35.479Z,14.16
2022-10-30T06:34:02.542Z,14.23
2022-10-30T06:39:14.707Z,14.32
2022-10-30T06:41:42.767Z,14.38
2022-10-30T06:44:09.561Z,14.45
2022-10-30T06:49:30.251Z,14.60
2022-10-30T06:51:59.849Z,14.67
2022-10-30T06:54:26.279Z,14.73
2022-10-30T06:56:53.406Z,14.77
2022-10-30T07:02:07.031Z,14.85
2022-10-30T07:04:35.416Z,14.91
2022-10-30T07:07:03.063Z,14.94
2022-10-30T07:09:29.860Z,14.99
2022-10-30T07:14:41.696Z,15.06
2022-10-30T07:17:08.657Z,15.13
2022-10-30T07:19:35.326Z,15.28
2022-10-30T07:22:02.024Z,15.41
2022-10-30T07:24:28.761Z,15.43
2022-10-30T07:26:56.179Z,15.49
2022-10-30T07:29:23.220Z,15.52
2022-10-30T07:32:02.152Z,15.48
2022-10-30T07:34:29.619Z,15.40
2022-10-30T07:36:56.494Z,15.42
2022-10-30T07:39:23.263Z,15.42
2022-10-30T07:41:50.439Z,15.54
2022-10-30T07:44:17.528Z,15.63
2022-10-30T07:46:44.876Z,15.75
2022-10-30T07:49:11.660Z,15.81
2022-10-30T07:51:38.855Z,15.85
2022-10-30T07:54:05.558Z,15.69
2022-10-30T07:56:32.098Z,15.66
2022-10-30T07:58:58.682Z,15.72
2022-10-30T08:01:25.438Z,15.78
2022-10-30T08:09:22.396Z,16.20
2022-10-30T08:14:34.476Z,16.27
2022-10-30T08:17:01.071Z,16.19
2022-10-30T08:22:13.643Z,16.67
2022-10-30T08:24:40.341Z,16.94
2022-10-30T08:27:06.936Z,17.25
2022-10-30T08:29:36.396Z,17.32
2022-10-30T08:34:48.359Z,17.50
2022-10-30T08:37:16.982Z,17.59
2022-10-30T08:39:43.888Z,17.67
2022-10-30T08:42:10.997Z,17.71
2022-10-30T08:44:37.550Z,17.69
2022-10-30T09:00:54.900Z,17.14
2022-10-30T09:03:25.571Z,17.17
2022-10-30T09:05:52.539Z,17.02
2022-10-30T09:08:19.385Z,16.89
2022-10-30T09:10:46.070Z,16.95
2022-10-30T09:13:12.994Z,16.92
2022-10-30T09:15:39.791Z,17.02
2022-10-30T09:18:06.800Z,17.24
2022-10-30T09:20:33.717Z,17.44
2022-10-30T09:23:00.916Z,17.54
2022-10-30T09:25:28.218Z,17.64
2022-10-30T09:27:55.177Z,17.54
2022-10-30T09:33:06.927Z,17.47
2022-10-30T09:38:18.755Z,17.01
2022-10-30T09:41:13.576Z,17.11
2022-10-30T09:44:21.979Z,17.16
2022-10-30T09:47:03.883Z,17.37
2022-10-30T09:50:13.794Z,17.71
2022-10-30T09:53:06.332Z,18.41
2022-10-30T09:55:58.916Z,18.83
2022-10-30T09:58:52.709Z,19.09
2022-10-30T10:01:45.458Z,19.96
2022-10-30T10:04:20.993Z,20.62
2022-10-30T10:06:58.337Z,21.52
2022-10-30T10:09:29.212Z,21.90
2022-10-30T10:15:00.313Z,25.44
2022-10-30T10:17:38.955Z,26.11
2022-10-30T10:20:13.546Z,25.55
2022-10-30T10:22:49.964Z,24.79
2022-10-30T10:25:30.333Z,24.31
2022-10-30T10:28:05.220Z,23.87
2022-10-30T10:30:55.756Z,25.05
2022-10-30T10:33:32.756Z,25.97
2022-10-30T10:36:06.056Z,25.75
2022-10-30T10:38:56.853Z,26.08
2022-10-30T10:41:29.855Z,27.22
2022-10-30T10:44:28.758Z,26.68
2022-10-30T10:53:54.696Z,22.38
2022-10-30T10:56:40.185Z,21.44
2022-10-30T10:59:18.766Z,20.90
2022-10-30T11:01:52.544Z,20.36
2022-10-30T11:04:38.946Z,20.43
2022-10-30T11:07:17.737Z,20.44
2022-10-30T11:09:52.676Z,20.94
2022-10-30T11:12:25.538Z,22.94
2022-10-30T11:14:52.172Z,24.86
2022-10-30T11:17:36.656Z,26.17
2022-10-30T11:20:18.312Z,27.54
2022-10-30T11:22:50.841Z,29.07
2022-10-30T11:25:28.590Z,29.92
2022-10-30T11:28:05.056Z,30.69
2022-10-30T11:33:23.216Z,29.37
2022-10-30T11:35:50.754Z,28.64
2022-10-30T11:38:20.846Z,29.47
2022-10-30T11:40:52.296Z,29.94
2022-10-30T11:43:25.596Z,30.21
2022-10-30T11:45:53.719Z,30.73
2022-10-30T11:48:30.319Z,30.99
2022-10-30T11:51:01.583Z,31.23
2022-10-30T11:53:49.775Z,31.23
2022-10-30T11:56:21.178Z,31.00
2022-10-30T11:58:52.819Z,30.84
2022-10-30T12:01:23.936Z,29.66
2022-10-30T12:03:52.956Z,30.82
2022-10-30T12:06:22.459Z,30.83
2022-10-30T12:09:09.800Z,31.18
2022-10-30T12:11:38.720Z,30.57
2022-10-30T12:14:06.217Z,28.76
2022-10-30T12:19:22.495Z,28.06
2022-10-30T12:21:56.567Z,28.69
2022-10-30T12:24:36.329Z,28.90
2022-10-30T12:27:05.736Z,28.74
2022-10-30T12:30:08.851Z,27.45
2022-10-30T12:32:52.219Z,26.64
2022-10-30T12:35:31.310Z,25.08
2022-10-30T12:38:01.969Z,24.21
2022-10-30T12:40:31.397Z,25.00
2022-10-30T12:43:05.001Z,25.93
2022-10-30T12:45:44.581Z,25.93
2022-10-30T12:48:27.558Z,24.87
2022-10-30T12:51:10.322Z,23.91
2022-10-30T12:53:47.055Z,22.87
2022-10-30T12:59:20.043Z,21.57
2022-10-30T13:02:05.468Z,21.17
2022-10-30T13:04:39.343Z,20.89
2022-10-30T13:07:20.911Z,20.45
2022-10-30T13:13:03.735Z,19.97
2022-10-30T13:15:35.472Z,20.01
2022-10-30T13:21:11.323Z,19.87
2022-10-30T13:24:22.667Z,19.56
2022-10-30T13:27:24.252Z,19.36
2022-10-30T13:30:16.702Z,19.16
2022-10-30T13:32:46.500Z,19.06
2022-10-30T13:35:26.746Z,18.91
2022-10-30T13:38:18.601Z,18.52
2022-10-30T13:40:54.527Z,18.45
2022-10-30T13:46:54.258Z,18.35
2022-10-30T13:49:33.313Z,18.30
2022-10-30T13:52:14.596Z,18.25
2022-10-30T13:55:06.996Z,18.14
2022-10-30T13:58:15.162Z,18.14
2022-10-30T14:01:06.133Z,18.05
2022-10-30T14:03:45.272Z,17.98
2022-10-30T14:06:48.806Z,17.94
2022-10-30T14:09:41.716Z,17.79
2022-10-30T14:12:45.883Z,17.68
2022-10-30T14:15:40.502Z,17.58
2022-10-30T14:18:13.088Z,17.54
2022-10-30T14:20:46.901Z,17.50
2022-10-30T14:23:19.998Z,17.38
2022-10-30T14:26:01.945Z,17.32
2022-10-30T14:28:39.054Z,17.15
2022-10-30T15:21:55.993Z,15.91
2022-10-30T15:24:32.118Z,15.99
2022-10-30T15:27:02.737Z,15.98
2022-10-30T15:29:35.451Z,16.01
2022-10-30T15:35:13.901Z,16.07
2022-10-30T15:38:03.491Z,16.08
2022-10-30T15:40:33.567Z,16.04
2022-10-30T15:43:04.587Z,16.01
2022-10-30T15:48:23.199Z,15.98
2022-10-30T15:51:04.429Z,16.01
2022-10-30T15:53:54.211Z,15.97
2022-10-30T15:56:32.832Z,15.94
2022-10-30T15:59:06.667Z,15.96
2022-10-30T16:04:36.941Z,15.89
2022-10-30T16:07:31.680Z,15.95
2022-10-30T16:10:03.590Z,15.95
2022-10-30T16:12:34.756Z,16.00
2022-10-30T16:18:12.778Z,15.93
2022-10-30T16:23:41.618Z,15.84
2022-10-30T16:29:27.210Z,15.71
2022-10-30T16:31:55.761Z,15.67
2022-10-30T16:34:42.641Z,15.68
2022-10-30T16:37:19.458Z,15.64
2022-10-30T16:39:51.172Z,15.60
2022-10-30T16:45:10.613Z,15.42
2022-10-30T16:47:43.426Z,15.42
2022-10-30T16:50:15.860Z,15.42
2022-10-30T16:52:44.794Z,15.40
2022-10-30T16:58:15.096Z,15.20
2022-10-30T17:01:09.865Z,15.13
2022-10-30T17:03:41.899Z,15.01
2022-10-30T17:06:35.900Z,14.97
2022-10-30T17:09:26.393Z,14.90
2022-10-30T17:12:15.636Z,14.86
2022-10-30T17:14:49.566Z,14.80
2022-10-30T17:17:44.096Z,14.81
2022-10-30T17:20:22.848Z,14.74
2022-10-30T17:23:07.722Z,14.72
2022-10-30T17:25:56.278Z,14.70
2022-10-30T17:28:44.785Z,14.67
2022-10-30T17:31:19.279Z,14.59
2022-10-30T17:34:06.878Z,14.55
2022-10-30T17:36:34.909Z,14.49
2022-10-30T17:41:49.814Z,14.42
2022-10-30T17:44:21.516Z,14.36
2022-10-30T17:46:52.279Z,14.34
2022-10-30T17:49:28.795Z,14.29
2022-10-30T17:51:57.840Z,14.28
2022-10-30T17:57:32.659Z,14.15
2022-10-30T18:00:00.988Z,14.11
2022-10-30T18:02:29.128Z,14.03
2022-10-30T18:05:00.253Z,13.98
2022-10-30T18:07:28.889Z,13.93
2022-10-30T18:09:58.353Z,13.87
2022-10-30T18:15:26.156Z,13.74
2022-10-30T18:17:54.494Z,13.72
2022-10-30T18:20:24.173Z,13.71
2022-10-30T18:22:53.692Z,13.74
2022-10-30T18:25:24.678Z,13.73
2022-10-30T18:27:53.637Z,13.69
2022-10-30T18:30:21.850Z,13.70
2022-10-30T18:32:50.671Z,13.69
2022-10-30T18:35:29.726Z,13.68
2022-10-30T18:37:58.678Z,13.61
2022-10-30T18:40:26.757Z,13.60
2022-10-30T18:45:42.115Z,13.60
2022-10-30T18:48:11.606Z,13.65
2022-10-30T18:50:39.965Z,13.67
2022-10-30T18:53:15.924Z,13.64
2022-10-30T18:55:44.804Z,13.57
2022-10-30T18:58:13.336Z,13.54
2022-10-30T19:01:09.943Z,13.52
2022-10-30T19:03:30.449Z,13.47
2022-10-30T19:05:58.958Z,13.46
2022-10-30T19:16:46.538Z,13.33
2022-10-30T19:19:15.279Z,13.35
2022-10-30T19:21:46.416Z,13.36
2022-10-30T19:24:15.682Z,13.37
2022-10-30T19:26:44.013Z,13.39
2022-10-30T19:29:12.251Z,13.41
2022-10-30T19:31:40.337Z,13.40
2022-10-30T19:34:08.682Z,13.37
2022-10-30T19:36:37.462Z,13.35
2022-10-30T19:39:17.059Z,13.35
2022-10-30T19:41:46.083Z,13.31
2022-10-30T19:47:01.916Z,13.26
2022-10-30T19:49:32.903Z,13.23
2022-10-30T19:52:01.357Z,13.17
2022-10-30T19:54:29.692Z,13.14
2022-10-30T19:59:44.264Z,13.00
2022-10-30T20:04:58.746Z,12.87
2022-10-30T20:07:27.156Z,12.83
2022-10-30T20:09:55.317Z,12.80
2022-10-30T20:12:23.603Z,12.80
2022-10-30T20:14:51.709Z,12.77
2022-10-30T20:17:19.966Z,12.73
2022-10-30T20:19:48.192Z,12.68
2022-10-30T20:22:16.340Z,12.65
2022-10-30T20:24:44.673Z,12.61
2022-10-30T20:27:13.377Z,12.56
2022-10-30T20:29:43.836Z,12.49
2022-10-30T20:32:12.063Z,12.43
2022-10-30T20:37:26.112Z,12.30
2022-10-30T20:39:54.434Z,12.27
2022-10-30T20:42:24.298Z,12.24
2022-10-30T20:44:52.899Z,12.19
2022-10-30T20:47:21.065Z,12.14
2022-10-30T20:49:49.226Z,12.09
2022-10-30T20:52:17.394Z,12.03
2022-10-30T20:57:31.715Z,11.95
2022-10-30T20:59:59.987Z,11.94
2022-10-30T21:02:28.792Z,11.93
2022-10-30T21:07:43.156Z,11.81
2022-10-30T21:10:11.321Z,11.78
2022-10-30T21:12:39.690Z,11.75
2022-10-30T21:15:08.086Z,11.71
2022-10-30T21:17:36.531Z,11.64
2022-10-30T21:20:05.109Z,11.60
2022-10-30T21:22:33.558Z,11.58
2022-10-30T21:30:33.626Z,11.41
2022-10-30T21:33:02.194Z,11.38
2022-10-30T21:38:17.327Z,11.28
2022-10-30T21:40:54.252Z,11.26
2022-10-30T21:43:22.623Z,11.22
2022-10-30T21:45:50.816Z,11.22
2022-10-30T21:48:19.710Z,11.22
2022-10-30T21:50:47.899Z,11.20
2022-10-30T21:53:16.146Z,11.16
2022-10-30T21:55:44.437Z,11.14
2022-10-30T21:58:12.483Z,11.12
2022-10-30T22:00:40.944Z,11.11
2022-10-30T22:03:11.220Z,11.08
2022-10-30T22:05:39.389Z,11.06
2022-10-30T22:08:07.767Z,11.02
2022-10-30T22:10:35.941Z,10.99
2022-10-30T22:13:04.064Z,10.98
2022-10-30T22:18:18.269Z,10.88
2022-10-30T22:20:46.296Z,10.87
2022-10-30T22:23:14.464Z,10.83
2022-10-30T22:25:42.677Z,10.81
2022-10-30T22:31:02.226Z,10.77
2022-10-30T22:33:31.859Z,10.73
2022-10-30T22:39:01.881Z,10.58
2022-10-30T22:41:34.585Z,10.56
2022-10-30T22:46:53.933Z,10.48
2022-10-30T22:52:07.889Z,10.43
2022-10-30T22:54:35.966Z,10.45
2022-10-30T22:57:04.020Z,10.44
2022-10-30T22:59:32.070Z,10.43
2022-10-30T23:02:00.561Z,10.41
2022-10-30T23:04:29.036Z,10.41
2022-10-30T23:06:57.241Z,10.40
2022-10-30T23:09:25.491Z,10.38
2022-10-30T23:11:53.479Z,10.34
2022-10-30T23:14:21.722Z,10.28
2022-10-30T23:16:49.720Z,10.25
2022-10-30T23:19:17.898Z,10.21
2022-10-30T23:21:46.021Z,10.19
2022-10-30T23:24:14.708Z,10.17
2022-10-30T23:26:42.855Z,10.12
2022-10-30T23:29:11.135Z,10.08
2022-10-30T23:31:41.500Z,10.07
2022-10-30T23:34:14.112Z,10.06
2022-10-30T23:36:45.245Z,9.98
2022-10-30T23:39:16.833Z,9.94
2022-10-30T23:41:45.614Z,9.95
2022-10-30T23:44:15.641Z,9.96
2022-10-30T23:46:43.998Z,9.94
2022-10-30T23:49:12.376Z,9.93
2022-10-30T23:51:40.640Z,9.94
2022-10-30T23:54:09.140Z,9.95
2022-10-30T23:56:37.259Z,9.95
2022-10-30T23:59:05.499Z,9.94
